Time;durP1;ratioP1;P1;durP2;ratioP2;P2;SDS_P1;SDS_P2;PMS_P1;PMS_P2;Temp;Humidity;BMP_temperature;BMP_pressure;BME280_temperature;BME280_humidity;BME280_pressure;Samples;Min_cycle;Max_cycle;Signal;HPM_P1;HPM_P2
2021/07/02 00:00:45;;;;;;;14.02;8.27;;;16.20;99.90;;;;;;4991388;28;20026;-34
2021/07/02 00:03:11;;;;;;;13.82;8.98;;;16.20;99.90;;;;;;4990229;28;20124;-34
2021/07/02 00:05:36;;;;;;;12.90;8.50;;;16.20;99.90;;;;;;4991154;28;20073;-34
2021/07/02 00:08:02;;;;;;;13.18;8.20;;;16.20;99.90;;;;;;4990041;28;20022;-34
2021/07/02 00:10:28;;;;;;;13.73;8.48;;;16.20;99.90;;;;;;4991939;28;20145;-34
2021/07/02 00:12:54;;;;;;;15.25;9.10;;;16.30;99.90;;;;;;4990954;28;20023;-34
2021/07/02 00:15:22;;;;;;;14.60;8.65;;;16.30;99.90;;;;;;4991502;28;20145;-34
2021/07/02 00:17:48;;;;;;;21.17;9.60;;;16.30;99.90;;;;;;4989556;28;20516;-34
2021/07/02 00:20:14;;;;;;;17.38;9.60;;;16.30;99.90;;;;;;4991822;28;20037;-34
2021/07/02 00:22:40;;;;;;;10.75;8.55;;;16.30;99.90;;;;;;4990928;28;20462;-33
2021/07/02 00:25:07;;;;;;;14.27;8.95;;;16.30;99.90;;;;;;4991439;28;20027;-34
2021/07/02 00:27:33;;;;;;;14.90;9.20;;;16.30;99.90;;;;;;4991294;28;20030;-34
2021/07/02 00:29:59;;;;;;;15.43;9.02;;;16.30;99.90;;;;;;4970497;28;20026;-34
2021/07/02 00:32:24;;;;;;;12.60;8.50;;;16.30;99.90;;;;;;4985719;28;20018;-34
2021/07/02 00:34:50;;;;;;;14.93;9.00;;;16.30;99.90;;;;;;4991522;28;20487;-34
2021/07/02 00:37:16;;;;;;;17.45;9.18;;;16.30;99.90;;;;;;4989973;28;20577;-34
2021/07/02 00:39:41;;;;;;;13.95;8.90;;;16.30;99.90;;;;;;4990495;28;20023;-34
2021/07/02 00:42:07;;;;;;;14.90;8.73;;;16.20;99.90;;;;;;4990789;28;20466;-33
2021/07/02 00:44:39;;;;;;;13.43;7.85;;;16.20;99.90;;;;;;4990821;28;20026;-34
2021/07/02 00:47:05;;;;;;;10.93;7.50;;;16.20;99.90;;;;;;4990662;28;20026;-34
2021/07/02 00:49:33;;;;;;;14.30;8.70;;;16.20;99.90;;;;;;4991052;28;20438;-34
2021/07/02 00:52:00;;;;;;;17.13;9.35;;;16.20;99.90;;;;;;4989464;28;20466;-34
2021/07/02 00:54:26;;;;;;;11.85;8.52;;;16.20;99.90;;;;;;4991376;28;20470;-34
2021/07/02 00:56:52;;;;;;;11.50;8.00;;;16.20;99.90;;;;;;4990493;28;20097;-34
2021/07/02 00:59:18;;;;;;;11.60;8.65;;;16.20;99.90;;;;;;4989943;28;20015;-33
2021/07/02 01:01:43;;;;;;;12.05;8.27;;;16.20;99.90;;;;;;4990807;28;20082;-34
2021/07/02 01:04:09;;;;;;;12.85;8.25;;;16.20;99.90;;;;;;4989976;28;20070;-34
2021/07/02 01:06:37;;;;;;;14.90;8.45;;;16.20;99.90;;;;;;4989902;28;20021;-34
2021/07/02 01:09:05;;;;;;;13.35;9.70;;;16.20;99.90;;;;;;4989381;28;20381;-33
2021/07/02 01:11:33;;;;;;;12.98;8.27;;;16.20;99.90;;;;;;4990658;28;20134;-34
2021/07/02 01:13:58;;;;;;;12.38;8.45;;;16.20;99.90;;;;;;4989407;28;20393;-34
2021/07/02 01:16:24;;;;;;;13.38;8.55;;;16.10;99.90;;;;;;4990027;28;20019;-34
2021/07/02 01:18:49;;;;;;;11.15;8.10;;;16.10;99.90;;;;;;4989323;28;20030;-34
2021/07/02 01:21:15;;;;;;;13.55;9.50;;;16.10;99.90;;;;;;4989805;28;20061;-34
2021/07/02 01:23:41;;;;;;;14.63;9.82;;;16.10;99.90;;;;;;4989806;28;20038;-34
2021/07/02 01:26:09;;;;;;;13.23;8.70;;;16.10;99.90;;;;;;4989778;28;20374;-34
2021/07/02 01:28:34;;;;;;;14.02;9.23;;;16.10;99.90;;;;;;4989950;28;20026;-34
2021/07/02 01:31:00;;;;;;;16.35;9.50;;;16.00;99.90;;;;;;4990174;28;20504;-34
2021/07/02 01:33:26;;;;;;;12.45;8.45;;;16.10;99.90;;;;;;4989689;28;20026;-34
2021/07/02 01:35:52;;;;;;;15.75;9.50;;;16.10;99.90;;;;;;4989668;28;20086;-34
2021/07/02 01:38:17;;;;;;;13.25;9.43;;;16.10;99.90;;;;;;4990413;28;20054;-34
2021/07/02 01:40:43;;;;;;;13.18;9.93;;;16.10;99.90;;;;;;4989142;28;20027;-34
2021/07/02 01:43:10;;;;;;;13.38;9.20;;;16.10;99.90;;;;;;4990424;28;20022;-34
2021/07/02 01:45:35;;;;;;;13.10;8.73;;;16.10;99.90;;;;;;4990134;28;20069;-33
2021/07/02 01:48:01;;;;;;;13.63;8.73;;;16.00;99.90;;;;;;4988832;28;20030;-34
2021/07/02 01:50:27;;;;;;;16.83;9.60;;;16.00;99.90;;;;;;4990306;28;20077;-34
2021/07/02 01:52:53;;;;;;;13.50;9.00;;;16.00;99.90;;;;;;4989531;28;20037;-34
2021/07/02 01:55:23;;;;;;;11.13;8.13;;;16.00;99.90;;;;;;4989305;28;20033;-33
2021/07/02 01:57:49;;;;;;;14.10;9.60;;;16.00;99.90;;;;;;4989930;28;20470;-34
2021/07/02 02:00:16;;;;;;;12.75;8.80;;;16.00;99.90;;;;;;4990231;28;20050;-35
2021/07/02 02:02:41;;;;;;;14.07;8.00;;;15.90;99.90;;;;;;4988971;28;20041;-34
2021/07/02 02:05:08;;;;;;;15.10;9.23;;;15.90;99.90;;;;;;4988762;28;20042;-34
2021/07/02 02:07:33;;;;;;;13.32;9.35;;;15.90;99.90;;;;;;4989623;28;20636;-34
2021/07/02 02:09:59;;;;;;;13.27;8.98;;;15.90;99.90;;;;;;4988542;28;20473;-34
2021/07/02 02:12:24;;;;;;;13.75;9.20;;;15.90;99.90;;;;;;4989638;28;20372;-34
2021/07/02 02:14:50;;;;;;;13.45;9.80;;;15.80;99.90;;;;;;4988669;28;20113;-34
2021/07/02 02:17:15;;;;;;;13.18;8.55;;;15.80;99.90;;;;;;4988848;28;20053;-34
2021/07/02 02:19:41;;;;;;;12.65;8.95;;;15.80;99.90;;;;;;4989510;28;20018;-36
2021/07/02 02:22:07;;;;;;;12.63;9.07;;;15.80;99.90;;;;;;4989475;28;20519;-35
2021/07/02 02:24:33;;;;;;;11.10;8.20;;;15.80;99.90;;;;;;4989643;28;20040;-34
2021/07/02 02:26:59;;;;;;;13.32;8.35;;;15.80;99.90;;;;;;4986834;28;20366;-34
2021/07/02 02:29:25;;;;;;;16.15;8.95;;;15.80;99.90;;;;;;4987924;28;20027;-34
2021/07/02 02:31:52;;;;;;;13.60;8.90;;;15.80;99.90;;;;;;4991551;28;20065;-34
2021/07/02 02:34:17;;;;;;;12.18;7.97;;;15.80;99.90;;;;;;4993056;28;20038;-34
2021/07/02 02:36:43;;;;;;;15.75;10.18;;;15.80;99.90;;;;;;4991596;28;20350;-34
2021/07/02 02:39:09;;;;;;;14.60;10.15;;;15.70;99.90;;;;;;4992906;28;20050;-34
2021/07/02 02:41:34;;;;;;;16.05;9.27;;;15.70;99.90;;;;;;4992765;28;20056;-34
2021/07/02 02:44:00;;;;;;;16.60;9.85;;;15.70;99.90;;;;;;4992154;28;20759;-35
2021/07/02 02:46:26;;;;;;;12.18;8.90;;;15.70;99.90;;;;;;4992764;28;20022;-35
2021/07/02 02:48:52;;;;;;;12.90;9.13;;;15.70;99.90;;;;;;4992591;28;20026;-34
2021/07/02 02:51:18;;;;;;;13.82;9.73;;;15.70;99.90;;;;;;4992177;28;20049;-34
2021/07/02 02:53:43;;;;;;;17.15;9.80;;;15.70;99.90;;;;;;4992568;28;20030;-35
2021/07/02 02:56:09;;;;;;;12.57;9.15;;;15.70;99.90;;;;;;4992075;28;20059;-35
2021/07/02 02:58:34;;;;;;;13.60;9.10;;;15.60;99.90;;;;;;4992388;28;20539;-34
2021/07/02 03:01:00;;;;;;;13.80;8.77;;;15.60;99.90;;;;;;4991644;28;20462;-34
2021/07/02 03:03:25;;;;;;;12.35;8.75;;;15.60;99.90;;;;;;4992454;28;20038;-34
2021/07/02 03:05:51;;;;;;;11.90;7.22;;;15.60;99.90;;;;;;4992132;28;20042;-35
2021/07/02 03:08:17;;;;;;;13.13;8.48;;;15.50;99.90;;;;;;4991681;28;20493;-32
2021/07/02 03:10:45;;;;;;;12.77;8.57;;;15.50;99.90;;;;;;4992132;28;20030;-33
2021/07/02 03:13:11;;;;;;;14.82;9.82;;;15.50;99.90;;;;;;4991010;28;20048;-37
2021/07/02 03:15:37;;;;;;;16.15;9.50;;;15.40;99.90;;;;;;4992430;28;20022;-34
2021/07/02 03:18:05;;;;;;;15.65;9.63;;;15.50;99.90;;;;;;4991594;28;20053;-35
2021/07/02 03:20:30;;;;;;;11.70;9.25;;;15.40;99.90;;;;;;4991528;28;20453;-34
2021/07/02 03:22:56;;;;;;;14.07;9.88;;;15.40;99.90;;;;;;4991731;28;20494;-33
2021/07/02 03:25:22;;;;;;;14.23;9.38;;;15.40;99.90;;;;;;4992160;28;20018;-34
2021/07/02 03:27:47;;;;;;;14.13;9.40;;;15.40;99.90;;;;;;4991237;28;20026;-32
2021/07/02 03:30:14;;;;;;;16.35;9.65;;;15.30;99.90;;;;;;4991837;28;20432;-32
2021/07/02 03:32:40;;;;;;;11.48;9.15;;;15.30;99.90;;;;;;4990365;28;20057;-32
2021/07/02 03:35:08;;;;;;;13.93;9.57;;;15.30;99.90;;;;;;4991963;28;20148;-32
2021/07/02 03:37:34;;;;;;;15.02;9.60;;;15.30;99.90;;;;;;4992311;28;20034;-32
2021/07/02 03:40:01;;;;;;;15.15;9.85;;;15.30;99.90;;;;;;4991101;28;20504;-32
2021/07/02 03:42:26;;;;;;;16.35;9.63;;;15.30;99.90;;;;;;4990945;28;20108;-32
2021/07/02 03:44:52;;;;;;;12.75;9.45;;;15.30;99.90;;;;;;4991362;28;20018;-32
2021/07/02 03:47:18;;;;;;;12.95;9.63;;;15.30;99.90;;;;;;4991575;28;20022;-32
2021/07/02 03:49:44;;;;;;;14.57;9.80;;;15.30;99.90;;;;;;4991419;28;20053;-32
2021/07/02 03:52:09;;;;;;;14.95;9.93;;;15.30;99.90;;;;;;4991186;28;20037;-32
2021/07/02 03:54:35;;;;;;;13.95;8.73;;;15.30;99.90;;;;;;4990930;28;20031;-33
2021/07/02 03:57:13;;;;;;;16.20;9.65;;;15.40;99.90;;;;;;4990658;28;20018;-32
2021/07/02 03:59:45;;;;;;;13.20;8.77;;;15.40;99.90;;;;;;4991200;28;20077;-32
2021/07/02 04:02:12;;;;;;;12.18;9.70;;;15.40;99.90;;;;;;4991202;28;20413;-33
2021/07/02 04:04:38;;;;;;;14.15;10.25;;;15.40;99.90;;;;;;4991466;28;20050;-34
2021/07/02 04:07:05;;;;;;;16.90;10.25;;;15.40;99.90;;;;;;4990694;28;20026;-33
2021/07/02 04:09:34;;;;;;;15.88;10.70;;;15.40;99.90;;;;;;4991375;28;20552;-33
2021/07/02 04:12:02;;;;;;;17.73;10.80;;;15.40;99.90;;;;;;4990880;28;20031;-32
2021/07/02 04:14:28;;;;;;;13.13;10.02;;;15.50;99.90;;;;;;4990985;28;20030;-32
2021/07/02 04:16:55;;;;;;;13.32;10.13;;;15.50;99.90;;;;;;4990362;28;20030;-32
2021/07/02 04:19:20;;;;;;;17.30;12.25;;;15.50;99.90;;;;;;4990639;28;20037;-33
2021/07/02 04:21:47;;;;;;;17.88;11.80;;;15.50;99.90;;;;;;4991536;28;20019;-32
2021/07/02 04:24:13;;;;;;;11.57;8.70;;;15.50;99.90;;;;;;4989882;28;20048;-31
2021/07/02 04:26:38;;;;;;;17.85;12.48;;;15.50;99.90;;;;;;4991153;28;20377;-33
2021/07/02 04:29:04;;;;;;;17.85;11.15;;;15.50;99.90;;;;;;4990212;28;20022;-34
2021/07/02 04:31:33;;;;;;;17.73;11.43;;;15.50;99.90;;;;;;4990615;28;20014;-34
2021/07/02 04:33:58;;;;;;;18.35;12.95;;;15.50;99.90;;;;;;4990171;28;20085;-32
2021/07/02 04:36:24;;;;;;;18.73;11.88;;;15.50;99.90;;;;;;4990399;28;20413;-35
2021/07/02 04:38:50;;;;;;;17.40;10.90;;;15.50;99.90;;;;;;4991101;28;20462;-32
2021/07/02 04:41:15;;;;;;;14.00;10.15;;;15.50;99.90;;;;;;4989882;28;20115;-32
2021/07/02 04:43:41;;;;;;;14.05;9.30;;;15.50;99.90;;;;;;4990404;28;20030;-32
2021/07/02 04:46:07;;;;;;;13.20;8.50;;;15.50;99.90;;;;;;4990105;28;20225;-32
2021/07/02 04:48:32;;;;;;;16.40;10.85;;;15.40;99.90;;;;;;4990401;28;20081;-32
2021/07/02 04:50:58;;;;;;;19.90;12.30;;;15.50;99.90;;;;;;4989956;28;20023;-34
2021/07/02 04:53:24;;;;;;;17.60;11.70;;;15.40;99.90;;;;;;4989832;28;20101;-33
2021/07/02 04:55:49;;;;;;;17.63;12.10;;;15.50;99.90;;;;;;4990214;28;20045;-31
2021/07/02 04:58:17;;;;;;;19.65;13.15;;;15.50;99.90;;;;;;4990106;28;20109;-32
2021/07/02 05:00:46;;;;;;;21.50;12.23;;;15.50;99.90;;;;;;4989929;28;20032;-34
2021/07/02 05:03:11;;;;;;;18.27;12.60;;;15.50;99.90;;;;;;4989900;28;20089;-34
2021/07/02 05:05:37;;;;;;;19.33;13.60;;;15.50;99.90;;;;;;4989392;28;20050;-34
2021/07/02 05:08:03;;;;;;;20.90;13.30;;;15.50;99.90;;;;;;4989750;28;20072;-34
2021/07/02 05:10:28;;;;;;;19.00;12.75;;;15.50;99.90;;;;;;4990339;28;20418;-34
2021/07/02 05:12:54;;;;;;;12.90;9.70;;;15.50;99.90;;;;;;4989106;28;20023;-34
2021/07/02 05:15:20;;;;;;;18.48;11.45;;;15.50;99.90;;;;;;4990651;28;20042;-33
2021/07/02 05:17:46;;;;;;;17.23;11.25;;;15.60;99.90;;;;;;4989853;28;20018;-34
2021/07/02 05:20:12;;;;;;;16.67;11.77;;;15.60;99.90;;;;;;4989189;28;20034;-34
2021/07/02 05:22:37;;;;;;;14.85;11.75;;;15.60;99.90;;;;;;4989536;28;20095;-33
2021/07/02 05:25:06;;;;;;;15.27;11.25;;;15.60;99.90;;;;;;4989882;28;20109;-33
2021/07/02 05:27:31;;;;;;;18.60;11.65;;;15.60;99.90;;;;;;4989706;28;20046;-34
2021/07/02 05:29:57;;;;;;;16.80;11.90;;;15.60;99.90;;;;;;4989610;28;20022;-34
2021/07/02 05:32:23;;;;;;;18.02;13.95;;;15.60;99.90;;;;;;4989209;28;20018;-33
2021/07/02 05:34:48;;;;;;;19.00;13.27;;;15.60;99.90;;;;;;4990044;28;20042;-34
2021/07/02 05:37:14;;;;;;;17.70;13.27;;;15.50;99.90;;;;;;4989777;28;20021;-34
2021/07/02 05:39:40;;;;;;;18.70;12.30;;;15.50;99.90;;;;;;4989365;28;20045;-34
2021/07/02 05:42:06;;;;;;;19.75;13.50;;;15.50;99.90;;;;;;4989856;28;20388;-34
2021/07/02 05:44:40;;;;;;;18.35;13.52;;;15.60;99.90;;;;;;4989423;28;20041;-33
2021/07/02 05:47:08;;;;;;;18.10;12.95;;;15.50;99.90;;;;;;4988408;28;20022;-34
2021/07/02 05:49:34;;;;;;;21.05;13.98;;;15.50;99.90;;;;;;4989964;28;20034;-32
2021/07/02 05:52:00;;;;;;;20.98;13.38;;;15.60;99.90;;;;;;4987327;28;20030;-32
2021/07/02 05:54:25;;;;;;;18.17;12.27;;;15.60;99.90;;;;;;4987380;28;20026;-33
2021/07/02 05:56:51;;;;;;;15.88;11.00;;;15.60;99.90;;;;;;4988656;28;20033;-33
2021/07/02 05:59:17;;;;;;;16.90;11.85;;;15.60;99.90;;;;;;4988574;28;20034;-33
2021/07/02 06:01:42;;;;;;;18.13;13.15;;;15.60;99.90;;;;;;4987891;28;20022;-33
2021/07/02 06:04:08;;;;;;;20.52;13.10;;;15.70;99.90;;;;;;4987779;28;20050;-33
2021/07/02 06:06:34;;;;;;;17.88;13.07;;;15.70;99.90;;;;;;4991909;28;20073;-32
2021/07/02 06:09:00;;;;;;;20.55;13.38;;;15.80;99.90;;;;;;4991470;28;20150;-33
2021/07/02 06:11:25;;;;;;;18.65;12.30;;;15.80;99.90;;;;;;4993845;28;20044;-32
2021/07/02 06:13:51;;;;;;;16.20;12.00;;;15.90;99.90;;;;;;4992324;28;20042;-32
2021/07/02 06:16:17;;;;;;;20.52;12.35;;;15.90;99.90;;;;;;4992176;28;20033;-32
2021/07/02 06:18:42;;;;;;;18.65;12.73;;;16.00;99.90;;;;;;4991977;28;20033;-33
2021/07/02 06:21:08;;;;;;;16.85;11.40;;;16.10;99.90;;;;;;4992501;28;20019;-32
2021/07/02 06:23:34;;;;;;;18.33;13.32;;;16.30;99.90;;;;;;4992118;28;20029;-34
2021/07/02 06:26:02;;;;;;;14.82;11.43;;;16.40;99.90;;;;;;4993280;28;20122;-34
2021/07/02 06:28:31;;;;;;;19.98;12.98;;;16.70;99.90;;;;;;4991049;28;20037;-34
2021/07/02 06:30:57;;;;;;;20.17;13.02;;;16.90;99.90;;;;;;4992774;28;20026;-33
2021/07/02 06:33:23;;;;;;;18.20;11.88;;;17.20;99.90;;;;;;4992953;28;20035;-33
2021/07/02 06:35:49;;;;;;;16.58;11.10;;;17.30;99.90;;;;;;4992576;28;20081;-33
2021/07/02 06:38:16;;;;;;;17.00;11.18;;;17.50;99.90;;;;;;4992632;28;20034;-34
2021/07/02 06:40:42;;;;;;;15.45;11.43;;;17.50;99.90;;;;;;4993059;28;20428;-34
2021/07/02 06:43:08;;;;;;;15.63;10.70;;;17.60;99.90;;;;;;4992599;28;20051;-33
2021/07/02 06:45:33;;;;;;;15.52;11.45;;;17.60;99.90;;;;;;4993239;28;20447;-34
2021/07/02 06:48:01;;;;;;;16.17;10.93;;;17.50;99.90;;;;;;4992834;28;20018;-33
2021/07/02 06:50:29;;;;;;;18.05;11.68;;;17.50;99.90;;;;;;4992361;28;20014;-33
2021/07/02 06:52:54;;;;;;;16.67;12.43;;;17.40;99.90;;;;;;4992813;28;20053;-33
2021/07/02 06:55:20;;;;;;;13.20;9.73;;;17.30;99.90;;;;;;4992820;28;20069;-33
2021/07/02 06:57:46;;;;;;;16.08;11.32;;;17.20;99.90;;;;;;4992534;28;20465;-33
2021/07/02 07:00:12;;;;;;;17.83;11.65;;;17.20;99.90;;;;;;4992583;28;20022;-33
2021/07/02 07:02:37;;;;;;;14.25;11.10;;;17.20;99.90;;;;;;4992985;28;20097;-33
2021/07/02 07:05:03;;;;;;;16.27;12.02;;;17.20;99.90;;;;;;4991123;28;20554;-33
2021/07/02 07:07:29;;;;;;;15.40;11.52;;;17.20;99.90;;;;;;4993323;28;20026;-33
2021/07/02 07:09:55;;;;;;;14.77;10.55;;;17.20;99.90;;;;;;4991861;28;20097;-33
2021/07/02 07:12:20;;;;;;;18.73;11.20;;;17.20;99.90;;;;;;4992162;28;20382;-33
2021/07/02 07:14:48;;;;;;;19.90;12.27;;;17.20;99.90;;;;;;4992315;28;20023;-35
2021/07/02 07:17:13;;;;;;;14.32;10.77;;;17.30;99.90;;;;;;4991251;28;20018;-35
2021/07/02 07:19:40;;;;;;;14.48;11.32;;;17.50;99.90;;;;;;4992521;28;20030;-33
2021/07/02 07:22:05;;;;;;;17.13;12.48;;;17.70;99.90;;;;;;4992463;28;20046;-32
2021/07/02 07:24:31;;;;;;;19.58;12.68;;;17.90;99.90;;;;;;4993003;28;20128;-33
2021/07/02 07:27:00;;;;;;;15.45;11.05;;;18.10;99.90;;;;;;4991161;28;20018;-32
2021/07/02 07:29:28;;;;;;;18.55;11.93;;;18.20;99.90;;;;;;4992270;28;20018;-35
2021/07/02 07:31:55;;;;;;;15.40;10.90;;;18.30;99.90;;;;;;4991207;28;20030;-34
2021/07/02 07:34:35;;;;;;;16.20;11.65;;;18.40;99.90;;;;;;4992193;28;20046;-34
2021/07/02 07:37:05;;;;;;;15.30;12.05;;;18.60;99.90;;;;;;4990744;28;20022;-34
2021/07/02 07:39:30;;;;;;;18.88;13.02;;;18.80;99.90;;;;;;4992113;28;20049;-34
2021/07/02 07:41:56;;;;;;;19.63;13.02;;;18.90;99.90;;;;;;4991172;28;20057;-34
2021/07/02 07:44:21;;;;;;;19.65;12.85;;;19.00;99.90;;;;;;4991646;28;20029;-34
2021/07/02 07:46:47;;;;;;;17.35;11.00;;;19.00;99.90;;;;;;4988492;28;20027;-33
2021/07/02 07:49:13;;;;;;;15.00;11.07;;;19.10;99.90;;;;;;4991352;28;20030;-34
2021/07/02 07:54:30;;;;;;;17.23;11.00;;;19.20;99.90;;;;;;4990618;28;20057;-34
2021/07/02 07:56:56;;;;;;;16.65;11.30;;;19.40;99.90;;;;;;4990947;28;20386;-34
2021/07/02 07:59:28;;;;;;;14.50;10.98;;;19.50;99.90;;;;;;4988854;28;20030;-33
2021/07/02 08:01:54;;;;;;;18.67;13.00;;;19.70;99.90;;;;;;4981437;28;20018;-34
2021/07/02 08:04:19;;;;;;;15.45;11.65;;;19.80;99.90;;;;;;4991865;28;20053;-35
2021/07/02 08:06:47;;;;;;;13.77;11.63;;;19.70;99.90;;;;;;4991361;28;20499;-34
2021/07/02 08:09:14;;;;;;;14.05;9.80;;;19.80;99.90;;;;;;4990889;28;20318;-34
2021/07/02 08:11:43;;;;;;;13.05;11.07;;;19.70;99.90;;;;;;4991413;28;20052;-34
2021/07/02 08:14:10;;;;;;;13.65;9.95;;;19.70;99.90;;;;;;4990892;28;20038;-34
2021/07/02 08:16:37;;;;;;;13.93;9.88;;;19.60;99.90;;;;;;4985873;28;20022;-34
2021/07/02 08:19:03;;;;;;;15.73;11.63;;;19.60;99.90;;;;;;4987960;28;20028;-34
2021/07/02 08:21:29;;;;;;;12.55;10.75;;;19.70;99.90;;;;;;4990630;28;20073;-34
2021/07/02 08:23:55;;;;;;;12.07;8.70;;;19.70;99.90;;;;;;4988889;28;20030;-34
2021/07/02 08:26:20;;;;;;;12.07;8.55;;;19.80;99.90;;;;;;4991502;28;20265;-34
2021/07/02 08:31:32;;;;;;;13.25;8.85;;;20.00;99.90;;;;;;4991387;28;20037;-33
2021/07/02 08:33:57;;;;;;;9.80;7.90;;;20.10;99.90;;;;;;4990044;28;20030;-35
2021/07/02 08:36:23;;;;;;;11.32;8.38;;;20.20;99.90;;;;;;4990565;28;20025;-34
2021/07/02 08:38:49;;;;;;;9.10;7.63;;;20.40;99.90;;;;;;4990799;28;20374;-34
2021/07/02 08:41:15;;;;;;;14.07;8.57;;;20.50;99.80;;;;;;4990672;28;20018;-34
2021/07/02 08:43:45;;;;;;;13.73;9.07;;;20.60;99.60;;;;;;4990274;28;20026;-34
2021/07/02 08:46:13;;;;;;;13.13;9.10;;;20.50;99.60;;;;;;4991127;28;20042;-32
2021/07/02 08:48:40;;;;;;;12.43;8.82;;;20.50;99.70;;;;;;4989305;28;20027;-32
2021/07/02 08:51:09;;;;;;;16.42;9.55;;;20.50;99.80;;;;;;4990004;28;20053;-33
2021/07/02 08:53:36;;;;;;;17.80;11.15;;;20.50;99.70;;;;;;4982067;28;20038;-33
2021/07/02 08:56:03;;;;;;;14.93;11.73;;;20.50;99.60;;;;;;4990084;28;20026;-33
2021/07/02 08:58:33;;;;;;;12.25;9.30;;;20.50;99.60;;;;;;4987351;28;20018;-33
2021/07/02 09:00:59;;;;;;;12.88;10.32;;;20.40;99.60;;;;;;4989514;28;20022;-33
2021/07/02 09:03:30;;;;;;;14.82;10.90;;;20.50;99.50;;;;;;4989959;28;20492;-33
2021/07/02 09:06:11;;;;;;;14.73;11.48;;;20.40;99.50;;;;;;4979282;28;20058;-33
2021/07/02 09:08:38;;;;;;;13.15;9.93;;;20.40;99.60;;;;;;4991352;28;20034;-33
2021/07/02 09:11:26;;;;;;;18.27;12.23;;;20.40;99.80;;;;;;4989528;28;20084;-35
2021/07/02 09:13:53;;;;;;;14.85;11.88;;;20.40;99.60;;;;;;4989620;28;20113;-36
2021/07/02 09:16:40;;;;;;;16.27;11.70;;;20.50;99.50;;;;;;4990634;28;20026;-35
2021/07/02 09:19:29;;;;;;;12.43;9.70;;;20.50;99.10;;;;;;4988326;28;20108;-35
2021/07/02 09:22:18;;;;;;;12.88;9.55;;;20.60;99.50;;;;;;4988002;28;20019;-35
2021/07/02 09:24:48;;;;;;;10.10;7.50;;;20.60;99.40;;;;;;4987834;28;20165;-35
2021/07/02 09:27:29;;;;;;;10.35;7.80;;;20.80;99.40;;;;;;4988430;28;20068;-35
2021/07/02 09:30:01;;;;;;;12.50;8.32;;;20.80;99.20;;;;;;4987483;28;20022;-36
2021/07/02 09:32:28;;;;;;;;;;;20.90;99.10;;;;;;4987863;28;20030;-35
2021/07/02 09:34:58;;;;;;;9.85;7.65;;;21.00;98.90;;;;;;4987946;28;20009;-35
2021/07/02 09:37:26;;;;;;;12.50;8.20;;;21.10;98.90;;;;;;4987942;28;20510;-35
2021/07/02 09:39:52;;;;;;;10.27;8.40;;;21.10;98.70;;;;;;4986540;28;20038;-35
2021/07/02 09:42:28;;;;;;;11.88;9.95;;;21.20;98.80;;;;;;4987788;28;20030;-35
2021/07/02 09:45:17;;;;;;;17.58;11.98;;;21.20;98.70;;;;;;4987897;28;20025;-36
2021/07/02 09:47:45;;;;;;;20.52;13.38;;;21.20;98.40;;;;;;4987940;28;20030;-35
2021/07/02 09:50:24;;;;;;;18.27;13.63;;;21.10;98.40;;;;;;4987834;28;20033;-35
2021/07/02 09:52:58;;;;;;;16.13;12.35;;;21.10;98.60;;;;;;4987747;28;20026;-35
2021/07/02 09:55:26;;;;;;;17.30;13.15;;;21.10;98.60;;;;;;4987814;28;20035;-35
2021/07/02 09:58:28;;;;;;;15.15;11.05;;;21.10;98.70;;;;;;4988746;28;20050;-35
2021/07/02 10:00:56;;;;;;;18.30;13.10;;;21.00;98.80;;;;;;4969427;28;20046;-35
2021/07/02 10:03:33;;;;;;;16.33;11.75;;;21.00;98.80;;;;;;4986486;28;20117;-35
2021/07/02 10:06:06;;;;;;;21.20;15.13;;;21.00;98.90;;;;;;4986931;28;20230;-35
2021/07/02 10:08:38;;;;;;;17.08;13.20;;;21.00;98.80;;;;;;4987425;28;20041;-35
2021/07/02 10:11:06;;;;;;;19.95;14.60;;;20.90;98.80;;;;;;4984925;28;20026;-35
2021/07/02 10:13:34;;;;;;;20.02;14.00;;;20.90;98.60;;;;;;4987248;28;20038;-35
2021/07/02 10:16:01;;;;;;;16.05;12.13;;;20.90;98.70;;;;;;4989335;28;20388;-35
2021/07/02 10:18:28;;;;;;;20.77;14.20;;;20.80;98.70;;;;;;4989829;28;20382;-35
2021/07/02 10:20:55;;;;;;;17.92;13.15;;;20.70;98.80;;;;;;4978268;28;20022;-35
2021/07/02 10:23:35;;;;;;;19.10;14.05;;;20.60;98.90;;;;;;4989606;28;20027;-35
2021/07/02 10:26:03;;;;;;;18.50;13.57;;;20.60;99.20;;;;;;4989386;28;20026;-35
2021/07/02 10:28:30;;;;;;;18.77;14.90;;;20.60;99.20;;;;;;4989638;28;20030;-35
2021/07/02 10:30:57;;;;;;;19.05;14.52;;;20.50;99.20;;;;;;4987028;28;20109;-35
2021/07/02 10:33:26;;;;;;;21.30;15.40;;;20.50;99.20;;;;;;4987592;28;20030;-35
2021/07/02 10:35:58;;;;;;;20.17;14.77;;;20.50;99.20;;;;;;4987418;28;20030;-35
2021/07/02 10:38:38;;;;;;;19.50;14.10;;;20.50;99.10;;;;;;4987931;28;20026;-35
2021/07/02 10:41:18;;;;;;;15.45;11.57;;;20.60;99.20;;;;;;4987546;28;20058;-35
2021/07/02 10:44:14;;;;;;;18.17;12.07;;;20.50;99.20;;;;;;4985885;28;20492;-35
2021/07/02 10:46:48;;;;;;;16.50;12.90;;;20.50;99.40;;;;;;4961408;28;20078;-35
2021/07/02 10:49:16;;;;;;;16.67;12.70;;;20.50;99.50;;;;;;4987532;28;20026;-35
2021/07/02 10:51:53;;;;;;;16.58;12.60;;;20.40;99.50;;;;;;4987948;28;20023;-35
2021/07/02 10:54:19;;;;;;;13.25;10.35;;;20.50;99.60;;;;;;4982502;28;20060;-34
2021/07/02 10:56:57;;;;;;;14.65;10.60;;;20.50;99.40;;;;;;4971941;28;20027;-35
2021/07/02 10:59:37;;;;;;;17.08;12.43;;;20.40;99.50;;;;;;4987943;28;20096;-35
2021/07/02 11:02:06;;;;;;;17.83;13.02;;;20.50;99.50;;;;;;4989900;28;20030;-35
2021/07/02 11:04:49;;;;;;;17.92;13.20;;;20.50;99.60;;;;;;4991580;28;20130;-35
2021/07/02 11:09:49;;;;;;;17.30;12.40;;;20.50;99.50;;;;;;4991440;28;20082;-35
2021/07/02 11:12:35;;;;;;;18.08;14.13;;;20.60;99.50;;;;;;4992978;28;20027;-35
2021/07/02 11:15:05;;;;;;;18.48;13.27;;;20.50;99.60;;;;;;4989235;28;20034;-35
2021/07/02 11:17:34;;;;;;;16.33;12.90;;;20.50;99.60;;;;;;4990290;28;20086;-35
2021/07/02 11:20:17;;;;;;;16.10;11.82;;;20.50;99.70;;;;;;4990599;28;20061;-35
2021/07/02 11:22:57;;;;;;;18.58;11.85;;;20.50;99.70;;;;;;4991805;28;20035;-35
2021/07/02 11:25:44;;;;;;;14.43;11.48;;;20.60;99.70;;;;;;4989732;28;20030;-35
2021/07/02 11:28:21;;;;;;;15.55;12.43;;;20.70;99.50;;;;;;4992374;28;20425;-36
2021/07/02 11:30:48;;;;;;;18.23;12.52;;;20.80;99.50;;;;;;4989755;28;20049;-35
2021/07/02 11:33:21;;;;;;;17.27;12.00;;;20.80;99.20;;;;;;4986181;28;20117;-35
2021/07/02 11:35:52;;;;;;;17.88;12.00;;;20.80;99.30;;;;;;4992691;28;20140;-35
2021/07/02 11:38:20;;;;;;;13.43;11.03;;;20.80;99.30;;;;;;4990721;28;20491;-35
2021/07/02 11:40:50;;;;;;;14.73;10.32;;;20.80;99.30;;;;;;4986585;28;20042;-35
2021/07/02 11:43:40;;;;;;;14.00;10.98;;;20.70;99.40;;;;;;4992199;28;20014;-35
2021/07/02 11:46:14;;;;;;;12.52;9.70;;;20.60;99.60;;;;;;4989752;28;20033;-35
2021/07/02 11:48:41;;;;;;;13.93;10.60;;;20.50;99.70;;;;;;4985781;28;20030;-35
2021/07/02 11:51:09;;;;;;;14.60;11.15;;;20.50;99.80;;;;;;4991932;28;20026;-36
2021/07/02 11:53:37;;;;;;;11.82;9.75;;;20.40;99.90;;;;;;4990647;28;20034;-35
2021/07/02 11:56:07;;;;;;;11.20;9.27;;;20.40;99.90;;;;;;4990281;28;20065;-35
2021/07/02 11:58:42;;;;;;;12.48;8.70;;;20.30;99.90;;;;;;4991146;28;20037;-35
2021/07/02 12:01:13;;;;;;;10.48;8.38;;;20.30;99.90;;;;;;4991277;28;20105;-35
2021/07/02 12:03:48;;;;;;;11.30;7.85;;;20.40;99.90;;;;;;4990953;28;20441;-35
2021/07/02 12:06:25;;;;;;;11.60;9.55;;;20.40;99.90;;;;;;4991036;28;20464;-35
2021/07/02 12:08:53;;;;;;;10.45;8.82;;;20.60;99.90;;;;;;4991724;28;20033;-35
2021/07/02 12:11:28;;;;;;;10.93;8.55;;;20.70;99.90;;;;;;4991781;28;20069;-35
2021/07/02 12:13:54;;;;;;;10.43;7.82;;;20.80;99.90;;;;;;4990866;28;20485;-35
2021/07/02 12:16:20;;;;;;;8.40;6.70;;;20.90;99.90;;;;;;4991540;28;20053;-35
2021/07/02 12:18:53;;;;;;;9.50;7.18;;;21.00;99.90;;;;;;4991337;28;20023;-35
2021/07/02 12:21:25;;;;;;;9.30;7.50;;;21.10;99.90;;;;;;4990570;28;20030;-35
2021/07/02 12:23:53;;;;;;;7.80;6.90;;;21.10;99.70;;;;;;4990967;28;20386;-35
2021/07/02 12:26:21;;;;;;;7.55;6.75;;;21.00;99.70;;;;;;4991662;28;20018;-34
2021/07/02 12:29:11;;;;;;;7.55;6.63;;;21.00;99.60;;;;;;4978842;28;20498;-34
2021/07/02 12:31:44;;;;;;;10.13;7.78;;;20.90;99.90;;;;;;4987625;28;20022;-34
2021/07/02 12:34:24;;;;;;;9.75;7.20;;;20.90;99.90;;;;;;4990610;28;20038;-34
2021/07/02 12:36:53;;;;;;;9.98;7.90;;;21.10;99.90;;;;;;4990266;28;20022;-34
2021/07/02 12:39:20;;;;;;;98.82;50.30;;;21.30;99.80;;;;;;4991530;28;20037;-34
2021/07/02 12:41:49;;;;;;;61.25;36.35;;;21.50;99.60;;;;;;4990009;28;20014;-34
2021/07/02 12:44:18;;;;;;;36.85;23.77;;;21.60;99.40;;;;;;4991557;28;20029;-34
2021/07/02 12:46:45;;;;;;;23.25;16.05;;;21.60;99.20;;;;;;4982211;28;20110;-34